sensor_id;sensor_type;location;lat;lon;timestamp;P1;durP1;ratioP1;P2;durP2;ratioP2
68593;SDS011;55563;52.416;13.548;2023-07-13T00:01:44;2.25;;;1.70;;
68593;SDS011;55563;52.416;13.548;2023-07-13T00:03:46;2.15;;;1.50;;
68593;SDS011;55563;52.416;13.548;2023-07-13T00:07:59;1.80;;;1.42;;
68593;SDS011;55563;52.416;13.548;2023-07-13T00:10:00;1.88;;;1.42;;
68593;SDS011;55563;52.416;13.548;2023-07-13T00:12:01;1.67;;;1.40;;
68593;SDS011;55563;52.416;13.548;2023-07-13T00:14:02;1.58;;;1.40;;
68593;SDS011;55563;52.416;13.548;2023-07-13T00:18:04;2.20;;;1.40;;
68593;SDS011;55563;52.416;13.548;2023-07-13T00:20:05;2.00;;;1.30;;
68593;SDS011;55563;52.416;13.548;2023-07-13T00:22:07;2.00;;;1.40;;
68593;SDS011;55563;52.416;13.548;2023-07-13T00:26:13;1.77;;;1.48;;
68593;SDS011;55563;52.416;13.548;2023-07-13T00:30:14;2.30;;;1.40;;
68593;SDS011;55563;52.416;13.548;2023-07-13T00:32:16;2.38;;;1.65;;
68593;SDS011;55563;52.416;13.548;2023-07-13T00:36:19;2.40;;;1.63;;
68593;SDS011;55563;52.416;13.548;2023-07-13T00:38:20;1.50;;;1.40;;
68593;SDS011;55563;52.416;13.548;2023-07-13T00:40:21;2.00;;;1.60;;
68593;SDS011;55563;52.416;13.548;2023-07-13T00:44:23;1.73;;;1.50;;
68593;SDS011;55563;52.416;13.548;2023-07-13T00:46:25;2.35;;;1.63;;
68593;SDS011;55563;52.416;13.548;2023-07-13T00:48:29;2.20;;;1.55;;
68593;SDS011;55563;52.416;13.548;2023-07-13T00:50:33;1.85;;;1.52;;
68593;SDS011;55563;52.416;13.548;2023-07-13T00:54:38;2.78;;;1.75;;
68593;SDS011;55563;52.416;13.548;2023-07-13T00:56:42;1.73;;;1.40;;
68593;SDS011;55563;52.416;13.548;2023-07-13T00:58:45;3.58;;;1.70;;
68593;SDS011;55563;52.416;13.548;2023-07-13T01:02:48;2.00;;;1.60;;
68593;SDS011;55563;52.416;13.548;2023-07-13T01:04:50;2.17;;;1.88;;
68593;SDS011;55563;52.416;13.548;2023-07-13T01:08:51;2.58;;;1.50;;
68593;SDS011;55563;52.416;13.548;2023-07-13T01:10:53;2.58;;;1.63;;
68593;SDS011;55563;52.416;13.548;2023-07-13T01:12:56;5.88;;;1.70;;
68593;SDS011;55563;52.416;13.548;2023-07-13T01:16:58;2.97;;;1.70;;
68593;SDS011;55563;52.416;13.548;2023-07-13T01:19:01;1.70;;;1.40;;
68593;SDS011;55563;52.416;13.548;2023-07-13T01:21:04;2.25;;;1.52;;
68593;SDS011;55563;52.416;13.548;2023-07-13T01:25:06;2.13;;;1.58;;
68593;SDS011;55563;52.416;13.548;2023-07-13T01:27:08;1.65;;;1.50;;
68593;SDS011;55563;52.416;13.548;2023-07-13T01:29:14;2.05;;;1.58;;
68593;SDS011;55563;52.416;13.548;2023-07-13T01:33:16;2.25;;;1.65;;
68593;SDS011;55563;52.416;13.548;2023-07-13T01:35:18;2.08;;;1.77;;
68593;SDS011;55563;52.416;13.548;2023-07-13T01:39:20;1.85;;;1.60;;
68593;SDS011;55563;52.416;13.548;2023-07-13T01:41:22;1.98;;;1.77;;
68593;SDS011;55563;52.416;13.548;2023-07-13T01:43:23;2.50;;;1.85;;
68593;SDS011;55563;52.416;13.548;2023-07-13T01:45:23;2.10;;;1.70;;
68593;SDS011;55563;52.416;13.548;2023-07-13T01:47:24;2.92;;;1.75;;
68593;SDS011;55563;52.416;13.548;2023-07-13T01:49:26;2.47;;;2.05;;
68593;SDS011;55563;52.416;13.548;2023-07-13T01:53:27;2.05;;;1.70;;
68593;SDS011;55563;52.416;13.548;2023-07-13T01:55:28;2.75;;;1.88;;
68593;SDS011;55563;52.416;13.548;2023-07-13T01:57:29;2.10;;;1.80;;
68593;SDS011;55563;52.416;13.548;2023-07-13T01:59:30;2.78;;;1.90;;
68593;SDS011;55563;52.416;13.548;2023-07-13T02:01:30;2.88;;;1.75;;
68593;SDS011;55563;52.416;13.548;2023-07-13T02:05:32;2.55;;;1.80;;
68593;SDS011;55563;52.416;13.548;2023-07-13T02:07:33;1.95;;;1.75;;
68593;SDS011;55563;52.416;13.548;2023-07-13T02:09:34;3.03;;;1.98;;
68593;SDS011;55563;52.416;13.548;2023-07-13T02:11:34;2.47;;;1.85;;
68593;SDS011;55563;52.416;13.548;2023-07-13T02:13:35;2.83;;;1.58;;
68593;SDS011;55563;52.416;13.548;2023-07-13T02:15:38;2.55;;;2.00;;
68593;SDS011;55563;52.416;13.548;2023-07-13T02:17:40;3.28;;;2.00;;
68593;SDS011;55563;52.416;13.548;2023-07-13T02:19:41;3.63;;;1.83;;
68593;SDS011;55563;52.416;13.548;2023-07-13T02:21:41;2.05;;;1.83;;
68593;SDS011;55563;52.416;13.548;2023-07-13T02:23:43;2.35;;;2.03;;
68593;SDS011;55563;52.416;13.548;2023-07-13T02:25:44;3.03;;;1.90;;
68593;SDS011;55563;52.416;13.548;2023-07-13T02:27:45;1.77;;;1.60;;
68593;SDS011;55563;52.416;13.548;2023-07-13T02:29:46;3.03;;;1.90;;
68593;SDS011;55563;52.416;13.548;2023-07-13T02:33:49;3.53;;;2.00;;
68593;SDS011;55563;52.416;13.548;2023-07-13T02:35:49;3.15;;;1.88;;
68593;SDS011;55563;52.416;13.548;2023-07-13T02:37:50;3.65;;;2.00;;
68593;SDS011;55563;52.416;13.548;2023-07-13T02:39:51;2.47;;;1.98;;
68593;SDS011;55563;52.416;13.548;2023-07-13T02:43:52;2.75;;;2.08;;
68593;SDS011;55563;52.416;13.548;2023-07-13T02:47:54;2.65;;;1.80;;
68593;SDS011;55563;52.416;13.548;2023-07-13T02:49:54;2.60;;;1.95;;
68593;SDS011;55563;52.416;13.548;2023-07-13T02:51:55;3.65;;;1.90;;
68593;SDS011;55563;52.416;13.548;2023-07-13T02:53:56;2.17;;;1.90;;
68593;SDS011;55563;52.416;13.548;2023-07-13T02:55:56;4.03;;;2.53;;
68593;SDS011;55563;52.416;13.548;2023-07-13T02:57:57;2.85;;;2.03;;
68593;SDS011;55563;52.416;13.548;2023-07-13T02:59:58;3.30;;;2.03;;
68593;SDS011;55563;52.416;13.548;2023-07-13T03:02:00;2.45;;;1.88;;
68593;SDS011;55563;52.416;13.548;2023-07-13T03:04:03;2.22;;;1.80;;
68593;SDS011;55563;52.416;13.548;2023-07-13T03:06:06;2.60;;;1.83;;
68593;SDS011;55563;52.416;13.548;2023-07-13T03:08:16;2.53;;;1.85;;
68593;SDS011;55563;52.416;13.548;2023-07-13T03:10:19;2.63;;;1.98;;
68593;SDS011;55563;52.416;13.548;2023-07-13T03:12:23;2.45;;;1.85;;
68593;SDS011;55563;52.416;13.548;2023-07-13T03:14:26;1.77;;;1.65;;
68593;SDS011;55563;52.416;13.548;2023-07-13T03:16:27;2.08;;;1.88;;
68593;SDS011;55563;52.416;13.548;2023-07-13T03:18:28;3.35;;;1.88;;
68593;SDS011;55563;52.416;13.548;2023-07-13T03:20:33;2.35;;;1.80;;
68593;SDS011;55563;52.416;13.548;2023-07-13T03:22:35;2.00;;;1.70;;
68593;SDS011;55563;52.416;13.548;2023-07-13T03:24:36;2.80;;;1.75;;
68593;SDS011;55563;52.416;13.548;2023-07-13T03:26:39;3.30;;;1.80;;
68593;SDS011;55563;52.416;13.548;2023-07-13T03:28:40;3.17;;;1.80;;
68593;SDS011;55563;52.416;13.548;2023-07-13T03:30:45;1.88;;;1.70;;
68593;SDS011;55563;52.416;13.548;2023-07-13T03:32:46;3.13;;;1.75;;
68593;SDS011;55563;52.416;13.548;2023-07-13T03:34:46;2.50;;;1.80;;
68593;SDS011;55563;52.416;13.548;2023-07-13T03:36:48;3.33;;;1.80;;
68593;SDS011;55563;52.416;13.548;2023-07-13T03:38:49;2.78;;;2.03;;
68593;SDS011;55563;52.416;13.548;2023-07-13T03:40:54;2.15;;;1.60;;
68593;SDS011;55563;52.416;13.548;2023-07-13T03:42:56;2.58;;;1.92;;
68593;SDS011;55563;52.416;13.548;2023-07-13T03:44:57;2.80;;;1.90;;
68593;SDS011;55563;52.416;13.548;2023-07-13T03:46:57;1.92;;;1.70;;
68593;SDS011;55563;52.416;13.548;2023-07-13T03:48:58;3.17;;;2.00;;
68593;SDS011;55563;52.416;13.548;2023-07-13T03:50:59;3.42;;;2.00;;
68593;SDS011;55563;52.416;13.548;2023-07-13T03:53:01;2.45;;;1.83;;
68593;SDS011;55563;52.416;13.548;2023-07-13T03:57:03;2.88;;;1.88;;
68593;SDS011;55563;52.416;13.548;2023-07-13T03:59:06;2.28;;;1.70;;
68593;SDS011;55563;52.416;13.548;2023-07-13T04:01:08;2.17;;;1.77;;
68593;SDS011;55563;52.416;13.548;2023-07-13T04:03:09;2.47;;;1.70;;
68593;SDS011;55563;52.416;13.548;2023-07-13T04:05:10;2.63;;;1.98;;
68593;SDS011;55563;52.416;13.548;2023-07-13T04:07:11;2.22;;;1.92;;
68593;SDS011;55563;52.416;13.548;2023-07-13T04:09:13;3.60;;;2.05;;
68593;SDS011;55563;52.416;13.548;2023-07-13T04:11:16;3.35;;;2.13;;
68593;SDS011;55563;52.416;13.548;2023-07-13T04:13:17;1.70;;;1.60;;
68593;SDS011;55563;52.416;13.548;2023-07-13T04:15:18;3.78;;;1.83;;
68593;SDS011;55563;52.416;13.548;2023-07-13T04:17:18;1.95;;;1.77;;
68593;SDS011;55563;52.416;13.548;2023-07-13T04:19:19;2.38;;;1.90;;
68593;SDS011;55563;52.416;13.548;2023-07-13T04:21:20;3.10;;;1.83;;
68593;SDS011;55563;52.416;13.548;2023-07-13T04:23:22;2.45;;;1.80;;
68593;SDS011;55563;52.416;13.548;2023-07-13T04:25:22;2.97;;;1.90;;
68593;SDS011;55563;52.416;13.548;2023-07-13T04:29:24;2.22;;;1.98;;
68593;SDS011;55563;52.416;13.548;2023-07-13T04:31:24;2.22;;;2.03;;
68593;SDS011;55563;52.416;13.548;2023-07-13T04:33:26;2.25;;;1.83;;
68593;SDS011;55563;52.416;13.548;2023-07-13T04:35:27;2.10;;;1.70;;
68593;SDS011;55563;52.416;13.548;2023-07-13T04:39:29;4.57;;;2.05;;
68593;SDS011;55563;52.416;13.548;2023-07-13T04:43:31;2.53;;;1.90;;
68593;SDS011;55563;52.416;13.548;2023-07-13T04:45:32;2.67;;;1.75;;
68593;SDS011;55563;52.416;13.548;2023-07-13T04:47:35;2.03;;;1.80;;
68593;SDS011;55563;52.416;13.548;2023-07-13T04:51:36;2.50;;;1.95;;
68593;SDS011;55563;52.416;13.548;2023-07-13T04:53:37;3.72;;;1.80;;
68593;SDS011;55563;52.416;13.548;2023-07-13T04:55:37;3.38;;;2.00;;
68593;SDS011;55563;52.416;13.548;2023-07-13T04:57:38;2.72;;;1.80;;
68593;SDS011;55563;52.416;13.548;2023-07-13T05:01:40;4.68;;;2.15;;
68593;SDS011;55563;52.416;13.548;2023-07-13T05:05:42;2.38;;;1.73;;
68593;SDS011;55563;52.416;13.548;2023-07-13T05:09:43;2.30;;;1.70;;
68593;SDS011;55563;52.416;13.548;2023-07-13T05:13:44;2.28;;;1.60;;
68593;SDS011;55563;52.416;13.548;2023-07-13T05:17:45;4.95;;;1.77;;
68593;SDS011;55563;52.416;13.548;2023-07-13T05:21:47;4.35;;;2.00;;
68593;SDS011;55563;52.416;13.548;2023-07-13T05:25:48;3.78;;;1.98;;
68593;SDS011;55563;52.416;13.548;2023-07-13T05:29:49;1.65;;;1.35;;
68593;SDS011;55563;52.416;13.548;2023-07-13T05:33:51;1.95;;;1.42;;
68593;SDS011;55563;52.416;13.548;2023-07-13T05:37:52;1.85;;;1.50;;
68593;SDS011;55563;52.416;13.548;2023-07-13T05:41:53;2.17;;;1.45;;
68593;SDS011;55563;52.416;13.548;2023-07-13T05:45:55;1.65;;;1.35;;
68593;SDS011;55563;52.416;13.548;2023-07-13T05:47:56;2.40;;;1.48;;
68593;SDS011;55563;52.416;13.548;2023-07-13T05:49:57;2.47;;;1.52;;
68593;SDS011;55563;52.416;13.548;2023-07-13T05:51:58;2.67;;;1.80;;
68593;SDS011;55563;52.416;13.548;2023-07-13T05:53:58;2.85;;;1.45;;
68593;SDS011;55563;52.416;13.548;2023-07-13T05:55:59;2.17;;;1.48;;
68593;SDS011;55563;52.416;13.548;2023-07-13T05:58:00;1.75;;;1.30;;
68593;SDS011;55563;52.416;13.548;2023-07-13T06:00:01;2.03;;;1.33;;
68593;SDS011;55563;52.416;13.548;2023-07-13T06:02:23;2.33;;;1.23;;
68593;SDS011;55563;52.416;13.548;2023-07-13T06:04:24;2.50;;;1.50;;
68593;SDS011;55563;52.416;13.548;2023-07-13T06:06:24;1.63;;;1.33;;
68593;SDS011;55563;52.416;13.548;2023-07-13T06:10:25;2.38;;;1.17;;
68593;SDS011;55563;52.416;13.548;2023-07-13T06:12:26;1.92;;;1.23;;
68593;SDS011;55563;52.416;13.548;2023-07-13T06:14:27;2.25;;;1.20;;
68593;SDS011;55563;52.416;13.548;2023-07-13T06:16:28;2.10;;;1.30;;
68593;SDS011;55563;52.416;13.548;2023-07-13T06:18:29;3.00;;;1.60;;
68593;SDS011;55563;52.416;13.548;2023-07-13T06:20:30;6.15;;;1.73;;
68593;SDS011;55563;52.416;13.548;2023-07-13T06:22:34;2.55;;;1.40;;
68593;SDS011;55563;52.416;13.548;2023-07-13T06:24:35;5.15;;;1.80;;
68593;SDS011;55563;52.416;13.548;2023-07-13T06:26:36;2.92;;;1.42;;
68593;SDS011;55563;52.416;13.548;2023-07-13T06:28:36;2.35;;;1.58;;
68593;SDS011;55563;52.416;13.548;2023-07-13T06:30:38;2.15;;;1.17;;
68593;SDS011;55563;52.416;13.548;2023-07-13T06:32:39;1.88;;;1.20;;
68593;SDS011;55563;52.416;13.548;2023-07-13T06:34:40;1.27;;;1.13;;
68593;SDS011;55563;52.416;13.548;2023-07-13T06:36:40;2.28;;;1.33;;
68593;SDS011;55563;52.416;13.548;2023-07-13T06:38:41;2.85;;;1.13;;
68593;SDS011;55563;52.416;13.548;2023-07-13T06:40:42;1.42;;;1.10;;
68593;SDS011;55563;52.416;13.548;2023-07-13T06:42:43;4.45;;;1.40;;
68593;SDS011;55563;52.416;13.548;2023-07-13T06:44:43;1.05;;;1.00;;
68593;SDS011;55563;52.416;13.548;2023-07-13T06:46:44;2.47;;;1.10;;
68593;SDS011;55563;52.416;13.548;2023-07-13T06:48:45;1.63;;;1.30;;
68593;SDS011;55563;52.416;13.548;2023-07-13T06:50:55;2.22;;;1.60;;
68593;SDS011;55563;52.416;13.548;2023-07-13T06:52:56;1.58;;;0.98;;
68593;SDS011;55563;52.416;13.548;2023-07-13T06:54:57;1.30;;;1.00;;
68593;SDS011;55563;52.416;13.548;2023-07-13T06:56:58;1.45;;;1.20;;
68593;SDS011;55563;52.416;13.548;2023-07-13T06:58:58;0.90;;;0.82;;
68593;SDS011;55563;52.416;13.548;2023-07-13T07:00:59;1.90;;;1.02;;
68593;SDS011;55563;52.416;13.548;2023-07-13T07:03:00;1.92;;;1.15;;
68593;SDS011;55563;52.416;13.548;2023-07-13T07:05:01;1.92;;;1.00;;
68593;SDS011;55563;52.416;13.548;2023-07-13T07:07:02;1.35;;;1.05;;
68593;SDS011;55563;52.416;13.548;2023-07-13T07:09:02;1.00;;;0.90;;
68593;SDS011;55563;52.416;13.548;2023-07-13T07:11:03;1.95;;;1.00;;
68593;SDS011;55563;52.416;13.548;2023-07-13T07:13:04;1.52;;;1.13;;
68593;SDS011;55563;52.416;13.548;2023-07-13T07:15:05;3.25;;;1.25;;
68593;SDS011;55563;52.416;13.548;2023-07-13T07:17:06;2.05;;;1.17;;
68593;SDS011;55563;52.416;13.548;2023-07-13T07:19:06;1.48;;;1.17;;
68593;SDS011;55563;52.416;13.548;2023-07-13T07:21:07;1.13;;;1.00;;
68593;SDS011;55563;52.416;13.548;2023-07-13T07:23:07;1.15;;;0.95;;
68593;SDS011;55563;52.416;13.548;2023-07-13T07:25:08;1.42;;;0.90;;
68593;SDS011;55563;52.416;13.548;2023-07-13T07:27:09;1.42;;;0.88;;
68593;SDS011;55563;52.416;13.548;2023-07-13T07:29:09;3.83;;;1.00;;
68593;SDS011;55563;52.416;13.548;2023-07-13T07:31:10;2.08;;;0.90;;
68593;SDS011;55563;52.416;13.548;2023-07-13T07:33:11;1.30;;;1.20;;
68593;SDS011;55563;52.416;13.548;2023-07-13T07:35:12;2.10;;;1.33;;
68593;SDS011;55563;52.416;13.548;2023-07-13T07:37:13;1.40;;;1.25;;
68593;SDS011;55563;52.416;13.548;2023-07-13T07:39:14;1.58;;;0.90;;
68593;SDS011;55563;52.416;13.548;2023-07-13T07:41:15;1.00;;;0.90;;
68593;SDS011;55563;52.416;13.548;2023-07-13T07:43:15;1.23;;;1.02;;
68593;SDS011;55563;52.416;13.548;2023-07-13T07:45:16;1.20;;;0.93;;
68593;SDS011;55563;52.416;13.548;2023-07-13T07:47:16;1.20;;;0.90;;
68593;SDS011;55563;52.416;13.548;2023-07-13T07:49:17;1.13;;;0.93;;
68593;SDS011;55563;52.416;13.548;2023-07-13T07:51:18;1.70;;;1.13;;
68593;SDS011;55563;52.416;13.548;2023-07-13T07:53:18;2.05;;;0.85;;
68593;SDS011;55563;52.416;13.548;2023-07-13T07:55:19;1.35;;;1.13;;
68593;SDS011;55563;52.416;13.548;2023-07-13T07:57:19;1.10;;;0.82;;
68593;SDS011;55563;52.416;13.548;2023-07-13T07:59:20;0.82;;;0.82;;
68593;SDS011;55563;52.416;13.548;2023-07-13T08:01:21;1.70;;;1.10;;
68593;SDS011;55563;52.416;13.548;2023-07-13T08:03:22;1.13;;;1.00;;
68593;SDS011;55563;52.416;13.548;2023-07-13T08:05:22;1.65;;;1.00;;
68593;SDS011;55563;52.416;13.548;2023-07-13T08:07:23;1.10;;;1.00;;
68593;SDS011;55563;52.416;13.548;2023-07-13T08:09:23;1.40;;;1.00;;
68593;SDS011;55563;52.416;13.548;2023-07-13T08:11:24;1.08;;;1.00;;
68593;SDS011;55563;52.416;13.548;2023-07-13T08:13:25;1.08;;;0.98;;
68593;SDS011;55563;52.416;13.548;2023-07-13T08:15:25;1.48;;;1.00;;
68593;SDS011;55563;52.416;13.548;2023-07-13T08:17:26;2.72;;;1.02;;
68593;SDS011;55563;52.416;13.548;2023-07-13T08:19:27;1.55;;;1.45;;
68593;SDS011;55563;52.416;13.548;2023-07-13T08:21:27;2.70;;;1.10;;
68593;SDS011;55563;52.416;13.548;2023-07-13T08:23:28;1.45;;;0.90;;
68593;SDS011;55563;52.416;13.548;2023-07-13T08:25:29;1.02;;;0.88;;
68593;SDS011;55563;52.416;13.548;2023-07-13T08:27:30;0.80;;;0.80;;
68593;SDS011;55563;52.416;13.548;2023-07-13T08:29:30;2.60;;;1.25;;
68593;SDS011;55563;52.416;13.548;2023-07-13T08:31:32;1.20;;;0.90;;
68593;SDS011;55563;52.416;13.548;2023-07-13T08:33:33;0.80;;;0.80;;
68593;SDS011;55563;52.416;13.548;2023-07-13T08:35:35;1.00;;;0.88;;
68593;SDS011;55563;52.416;13.548;2023-07-13T08:37:36;1.85;;;1.00;;
68593;SDS011;55563;52.416;13.548;2023-07-13T08:39:36;1.30;;;0.95;;
68593;SDS011;55563;52.416;13.548;2023-07-13T08:41:37;1.65;;;0.93;;
68593;SDS011;55563;52.416;13.548;2023-07-13T08:43:38;0.98;;;0.98;;
68593;SDS011;55563;52.416;13.548;2023-07-13T08:45:46;1.38;;;1.02;;
68593;SDS011;55563;52.416;13.548;2023-07-13T08:47:56;1.45;;;1.33;;
68593;SDS011;55563;52.416;13.548;2023-07-13T08:50:04;0.90;;;0.90;;
68593;SDS011;55563;52.416;13.548;2023-07-13T08:52:09;1.20;;;0.95;;
68593;SDS011;55563;52.416;13.548;2023-07-13T08:54:21;1.58;;;1.17;;
68593;SDS011;55563;52.416;13.548;2023-07-13T08:56:29;3.20;;;0.93;;
68593;SDS011;55563;52.416;13.548;2023-07-13T08:58:31;1.30;;;1.20;;
68593;SDS011;55563;52.416;13.548;2023-07-13T09:00:36;1.55;;;1.15;;
68593;SDS011;55563;52.416;13.548;2023-07-13T09:02:46;2.08;;;1.10;;
68593;SDS011;55563;52.416;13.548;2023-07-13T09:04:59;2.90;;;1.27;;
68593;SDS011;55563;52.416;13.548;2023-07-13T09:07:12;1.30;;;0.95;;
68593;SDS011;55563;52.416;13.548;2023-07-13T09:09:33;1.20;;;1.00;;
68593;SDS011;55563;52.416;13.548;2023-07-13T09:11:53;1.98;;;1.00;;
68593;SDS011;55563;52.416;13.548;2023-07-13T09:16:41;1.25;;;1.02;;
68593;SDS011;55563;52.416;13.548;2023-07-13T09:18:45;1.83;;;1.17;;
68593;SDS011;55563;52.416;13.548;2023-07-13T09:20:51;2.08;;;1.60;;
68593;SDS011;55563;52.416;13.548;2023-07-13T09:22:56;1.23;;;1.13;;
68593;SDS011;55563;52.416;13.548;2023-07-13T09:25:05;1.92;;;1.33;;
68593;SDS011;55563;52.416;13.548;2023-07-13T09:27:22;1.20;;;1.10;;
68593;SDS011;55563;52.416;13.548;2023-07-13T09:29:31;1.70;;;1.25;;
68593;SDS011;55563;52.416;13.548;2023-07-13T09:31:37;1.23;;;1.13;;
68593;SDS011;55563;52.416;13.548;2023-07-13T09:33:42;1.83;;;1.10;;
68593;SDS011;55563;52.416;13.548;2023-07-13T09:35:43;1.48;;;1.38;;
68593;SDS011;55563;52.416;13.548;2023-07-13T09:37:44;1.42;;;1.33;;
68593;SDS011;55563;52.416;13.548;2023-07-13T09:39:46;1.73;;;1.02;;
68593;SDS011;55563;52.416;13.548;2023-07-13T09:41:53;1.00;;;1.00;;
68593;SDS011;55563;52.416;13.548;2023-07-13T09:44:02;1.70;;;1.60;;
68593;SDS011;55563;52.416;13.548;2023-07-13T09:46:26;1.60;;;1.10;;
68593;SDS011;55563;52.416;13.548;2023-07-13T09:48:32;1.38;;;0.95;;
68593;SDS011;55563;52.416;13.548;2023-07-13T09:50:35;1.92;;;1.50;;
68593;SDS011;55563;52.416;13.548;2023-07-13T09:52:42;1.27;;;1.10;;
68593;SDS011;55563;52.416;13.548;2023-07-13T09:54:45;1.55;;;1.13;;
68593;SDS011;55563;52.416;13.548;2023-07-13T09:56:48;1.70;;;1.13;;
68593;SDS011;55563;52.416;13.548;2023-07-13T09:58:55;1.33;;;1.23;;
68593;SDS011;55563;52.416;13.548;2023-07-13T10:00:58;2.67;;;1.42;;
68593;SDS011;55563;52.416;13.548;2023-07-13T10:03:34;1.25;;;1.02;;
68593;SDS011;55563;52.416;13.548;2023-07-13T10:05:26;1.63;;;1.33;;
68593;SDS011;55563;52.416;13.548;2023-07-13T10:07:27;2.42;;;1.40;;
68593;SDS011;55563;52.416;13.548;2023-07-13T10:09:28;1.35;;;1.25;;
68593;SDS011;55563;52.416;13.548;2023-07-13T10:11:29;1.33;;;1.23;;
68593;SDS011;55563;52.416;13.548;2023-07-13T10:14:02;1.83;;;1.35;;
68593;SDS011;55563;52.416;13.548;2023-07-13T10:15:55;1.90;;;1.33;;
68593;SDS011;55563;52.416;13.548;2023-07-13T10:17:57;2.00;;;1.30;;
68593;SDS011;55563;52.416;13.548;2023-07-13T10:19:59;1.58;;;1.35;;
68593;SDS011;55563;52.416;13.548;2023-07-13T10:22:22;1.65;;;1.25;;
68593;SDS011;55563;52.416;13.548;2023-07-13T10:24:29;2.05;;;1.40;;
68593;SDS011;55563;52.416;13.548;2023-07-13T10:26:33;1.83;;;1.40;;
68593;SDS011;55563;52.416;13.548;2023-07-13T10:28:36;2.63;;;1.55;;
68593;SDS011;55563;52.416;13.548;2023-07-13T10:30:39;2.33;;;1.35;;
68593;SDS011;55563;52.416;13.548;2023-07-13T10:32:43;1.77;;;1.30;;
68593;SDS011;55563;52.416;13.548;2023-07-13T10:34:45;1.40;;;1.30;;
68593;SDS011;55563;52.416;13.548;2023-07-13T10:36:48;2.47;;;1.55;;
68593;SDS011;55563;52.416;13.548;2023-07-13T10:38:50;2.22;;;1.63;;
68593;SDS011;55563;52.416;13.548;2023-07-13T10:40:56;1.95;;;1.30;;
68593;SDS011;55563;52.416;13.548;2023-07-13T10:45:04;1.90;;;1.58;;
68593;SDS011;55563;52.416;13.548;2023-07-13T10:47:15;2.60;;;1.75;;
68593;SDS011;55563;52.416;13.548;2023-07-13T10:49:18;1.63;;;1.50;;
68593;SDS011;55563;52.416;13.548;2023-07-13T10:51:20;1.67;;;1.52;;
68593;SDS011;55563;52.416;13.548;2023-07-13T10:53:28;1.83;;;1.73;;
68593;SDS011;55563;52.416;13.548;2023-07-13T10:55:31;1.73;;;1.45;;
68593;SDS011;55563;52.416;13.548;2023-07-13T10:57:51;4.18;;;1.52;;
68593;SDS011;55563;52.416;13.548;2023-07-13T11:00:24;2.33;;;1.80;;
68593;SDS011;55563;52.416;13.548;2023-07-13T11:02:25;3.00;;;2.17;;
68593;SDS011;55563;52.416;13.548;2023-07-13T11:04:29;1.65;;;1.52;;
68593;SDS011;55563;52.416;13.548;2023-07-13T11:06:41;2.40;;;1.60;;
68593;SDS011;55563;52.416;13.548;2023-07-13T11:10:58;2.25;;;2.05;;
68593;SDS011;55563;52.416;13.548;2023-07-13T11:12:59;3.63;;;1.88;;
68593;SDS011;55563;52.416;13.548;2023-07-13T11:15:02;2.67;;;2.33;;
68593;SDS011;55563;52.416;13.548;2023-07-13T11:19:37;2.15;;;1.95;;
68593;SDS011;55563;52.416;13.548;2023-07-13T11:22:11;1.90;;;1.80;;
68593;SDS011;55563;52.416;13.548;2023-07-13T11:24:12;2.35;;;2.15;;
68593;SDS011;55563;52.416;13.548;2023-07-13T11:28:42;2.55;;;1.65;;
68593;SDS011;55563;52.416;13.548;2023-07-13T11:33:03;2.08;;;1.40;;
68593;SDS011;55563;52.416;13.548;2023-07-13T11:35:13;1.83;;;1.50;;
68593;SDS011;55563;52.416;13.548;2023-07-13T11:37:22;2.08;;;1.45;;
68593;SDS011;55563;52.416;13.548;2023-07-13T11:39:26;1.75;;;1.25;;
68593;SDS011;55563;52.416;13.548;2023-07-13T11:41:35;2.78;;;1.80;;
68593;SDS011;55563;52.416;13.548;2023-07-13T11:43:43;2.33;;;1.33;;
68593;SDS011;55563;52.416;13.548;2023-07-13T11:45:44;1.67;;;1.20;;
68593;SDS011;55563;52.416;13.548;2023-07-13T11:47:45;1.30;;;1.20;;
68593;SDS011;55563;52.416;13.548;2023-07-13T11:49:50;1.92;;;1.00;;
68593;SDS011;55563;52.416;13.548;2023-07-13T11:51:56;1.50;;;1.20;;
68593;SDS011;55563;52.416;13.548;2023-07-13T11:54:01;1.40;;;1.30;;
68593;SDS011;55563;52.416;13.548;2023-07-13T11:56:05;1.65;;;1.40;;
68593;SDS011;55563;52.416;13.548;2023-07-13T11:58:07;1.80;;;1.30;;
68593;SDS011;55563;52.416;13.548;2023-07-13T12:00:12;2.03;;;1.38;;
68593;SDS011;55563;52.416;13.548;2023-07-13T12:02:16;2.08;;;1.63;;
68593;SDS011;55563;52.416;13.548;2023-07-13T12:04:29;2.15;;;1.42;;
68593;SDS011;55563;52.416;13.548;2023-07-13T12:06:33;2.25;;;1.40;;
68593;SDS011;55563;52.416;13.548;2023-07-13T12:08:39;2.30;;;1.42;;
68593;SDS011;55563;52.416;13.548;2023-07-13T12:10:40;3.10;;;1.45;;
68593;SDS011;55563;52.416;13.548;2023-07-13T12:12:52;1.95;;;1.30;;
68593;SDS011;55563;52.416;13.548;2023-07-13T12:14:57;2.72;;;1.77;;
68593;SDS011;55563;52.416;13.548;2023-07-13T12:16:57;1.50;;;1.33;;
68593;SDS011;55563;52.416;13.548;2023-07-13T12:18:59;2.08;;;1.27;;
68593;SDS011;55563;52.416;13.548;2023-07-13T12:21:01;1.52;;;1.35;;
68593;SDS011;55563;52.416;13.548;2023-07-13T12:23:05;1.58;;;1.40;;
68593;SDS011;55563;52.416;13.548;2023-07-13T12:25:15;1.83;;;1.33;;
68593;SDS011;55563;52.416;13.548;2023-07-13T12:27:22;1.60;;;1.50;;
68593;SDS011;55563;52.416;13.548;2023-07-13T12:29:25;3.28;;;1.50;;
68593;SDS011;55563;52.416;13.548;2023-07-13T12:31:30;2.97;;;1.38;;
68593;SDS011;55563;52.416;13.548;2023-07-13T12:33:35;3.50;;;1.50;;
68593;SDS011;55563;52.416;13.548;2023-07-13T12:35:45;1.45;;;1.33;;
68593;SDS011;55563;52.416;13.548;2023-07-13T12:37:48;1.63;;;1.33;;
68593;SDS011;55563;52.416;13.548;2023-07-13T12:39:48;3.05;;;1.33;;
68593;SDS011;55563;52.416;13.548;2023-07-13T12:41:50;1.60;;;1.25;;
68593;SDS011;55563;52.416;13.548;2023-07-13T12:43:52;2.17;;;1.30;;
68593;SDS011;55563;52.416;13.548;2023-07-13T12:45:55;1.40;;;1.30;;
68593;SDS011;55563;52.416;13.548;2023-07-13T12:48:04;1.38;;;1.25;;
68593;SDS011;55563;52.416;13.548;2023-07-13T12:50:15;2.10;;;1.42;;
68593;SDS011;55563;52.416;13.548;2023-07-13T12:52:23;1.55;;;1.35;;
68593;SDS011;55563;52.416;13.548;2023-07-13T12:54:30;1.50;;;1.15;;
68593;SDS011;55563;52.416;13.548;2023-07-13T12:56:32;1.55;;;1.42;;
68593;SDS011;55563;52.416;13.548;2023-07-13T12:58:37;1.98;;;1.30;;
68593;SDS011;55563;52.416;13.548;2023-07-13T13:00:48;2.10;;;1.27;;
68593;SDS011;55563;52.416;13.548;2023-07-13T13:02:53;1.35;;;1.25;;
68593;SDS011;55563;52.416;13.548;2023-07-13T13:04:56;2.67;;;1.20;;
68593;SDS011;55563;52.416;13.548;2023-07-13T13:07:02;1.27;;;1.17;;
68593;SDS011;55563;52.416;13.548;2023-07-13T13:09:09;1.20;;;1.02;;
68593;SDS011;55563;52.416;13.548;2023-07-13T13:11:13;1.63;;;1.20;;
68593;SDS011;55563;52.416;13.548;2023-07-13T13:13:16;1.20;;;1.10;;
68593;SDS011;55563;52.416;13.548;2023-07-13T13:15:17;2.80;;;1.20;;
68593;SDS011;55563;52.416;13.548;2023-07-13T13:17:18;1.85;;;1.10;;
68593;SDS011;55563;52.416;13.548;2023-07-13T13:19:23;1.30;;;1.20;;
68593;SDS011;55563;52.416;13.548;2023-07-13T13:21:28;2.53;;;1.30;;
68593;SDS011;55563;52.416;13.548;2023-07-13T13:23:28;1.55;;;1.35;;
68593;SDS011;55563;52.416;13.548;2023-07-13T13:25:29;1.60;;;1.30;;
68593;SDS011;55563;52.416;13.548;2023-07-13T13:27:30;1.70;;;1.50;;
68593;SDS011;55563;52.416;13.548;2023-07-13T13:29:31;1.65;;;1.40;;
68593;SDS011;55563;52.416;13.548;2023-07-13T13:31:33;1.33;;;1.05;;
68593;SDS011;55563;52.416;13.548;2023-07-13T13:33:34;3.33;;;1.40;;
68593;SDS011;55563;52.416;13.548;2023-07-13T13:35:35;2.35;;;1.50;;
68593;SDS011;55563;52.416;13.548;2023-07-13T13:37:35;1.60;;;1.25;;